sensor_id;sensor_type;location;lat;lon;timestamp;temperature;humidity
32217;DHT22;67098;51.140;4.088;2023-10-31T00:02:16;14.00;99.30
32217;DHT22;67098;51.140;4.088;2023-10-31T00:04:41;14.10;99.20
32217;DHT22;67098;51.140;4.088;2023-10-31T00:07:07;14.00;99.30
32217;DHT22;67098;51.140;4.088;2023-10-31T00:09:33;14.10;99.30
32217;DHT22;67098;51.140;4.088;2023-10-31T00:11:59;14.10;99.30
32217;DHT22;67098;51.140;4.088;2023-10-31T00:14:25;14.10;99.30
32217;DHT22;67098;51.140;4.088;2023-10-31T00:16:51;14.10;99.30
32217;DHT22;67098;51.140;4.088;2023-10-31T00:19:17;14.00;99.40
32217;DHT22;67098;51.140;4.088;2023-10-31T00:21:42;14.00;99.50
32217;DHT22;67098;51.140;4.088;2023-10-31T00:24:08;14.00;99.70
32217;DHT22;67098;51.140;4.088;2023-10-31T00:26:34;14.00;99.40
32217;DHT22;67098;51.140;4.088;2023-10-31T00:29:00;14.00;99.50
32217;DHT22;67098;51.140;4.088;2023-10-31T00:31:25;14.00;99.60
32217;DHT22;67098;51.140;4.088;2023-10-31T00:33:51;13.90;99.70
32217;DHT22;67098;51.140;4.088;2023-10-31T00:36:17;13.80;99.90
32217;DHT22;67098;51.140;4.088;2023-10-31T00:38:43;13.90;99.80
32217;DHT22;67098;51.140;4.088;2023-10-31T00:41:08;13.90;99.70
32217;DHT22;67098;51.140;4.088;2023-10-31T00:43:34;13.90;99.70
32217;DHT22;67098;51.140;4.088;2023-10-31T00:46:02;13.80;99.70
32217;DHT22;67098;51.140;4.088;2023-10-31T00:48:28;13.70;99.90
32217;DHT22;67098;51.140;4.088;2023-10-31T00:50:53;13.80;99.90
32217;DHT22;67098;51.140;4.088;2023-10-31T00:53:19;13.80;99.90
32217;DHT22;67098;51.140;4.088;2023-10-31T00:55:45;13.80;99.90
32217;DHT22;67098;51.140;4.088;2023-10-31T00:58:11;13.80;99.90
32217;DHT22;67098;51.140;4.088;2023-10-31T01:00:37;13.60;99.90
32217;DHT22;67098;51.140;4.088;2023-10-31T01:03:03;13.70;99.90
32217;DHT22;67098;51.140;4.088;2023-10-31T01:05:29;13.80;99.90
32217;DHT22;67098;51.140;4.088;2023-10-31T01:07:55;13.80;99.90
32217;DHT22;67098;51.140;4.088;2023-10-31T01:10:21;13.60;99.90
32217;DHT22;67098;51.140;4.088;2023-10-31T01:12:47;13.60;99.90
32217;DHT22;67098;51.140;4.088;2023-10-31T01:15:12;13.50;99.90
32217;DHT22;67098;51.140;4.088;2023-10-31T01:17:38;13.40;99.90
32217;DHT22;67098;51.140;4.088;2023-10-31T01:20:05;13.30;99.90
32217;DHT22;67098;51.140;4.088;2023-10-31T01:22:31;13.40;99.90
32217;DHT22;67098;51.140;4.088;2023-10-31T01:24:57;13.30;99.90
32217;DHT22;67098;51.140;4.088;2023-10-31T01:27:23;13.40;99.90
32217;DHT22;67098;51.140;4.088;2023-10-31T01:29:48;13.50;99.90
32217;DHT22;67098;51.140;4.088;2023-10-31T01:32:14;13.60;99.90
32217;DHT22;67098;51.140;4.088;2023-10-31T01:34:40;13.60;99.90
32217;DHT22;67098;51.140;4.088;2023-10-31T01:37:06;13.60;99.90
32217;DHT22;67098;51.140;4.088;2023-10-31T01:39:32;13.60;99.90
32217;DHT22;67098;51.140;4.088;2023-10-31T01:41:57;13.60;99.90
32217;DHT22;67098;51.140;4.088;2023-10-31T01:44:23;13.60;99.90
32217;DHT22;67098;51.140;4.088;2023-10-31T01:46:49;13.60;99.90
32217;DHT22;67098;51.140;4.088;2023-10-31T01:49:15;13.70;99.90
32217;DHT22;67098;51.140;4.088;2023-10-31T01:51:41;13.70;99.90
32217;DHT22;67098;51.140;4.088;2023-10-31T01:54:09;13.70;99.90
32217;DHT22;67098;51.140;4.088;2023-10-31T01:56:35;13.70;99.90
32217;DHT22;67098;51.140;4.088;2023-10-31T01:59:01;13.70;99.90
32217;DHT22;67098;51.140;4.088;2023-10-31T02:01:27;13.60;99.90
32217;DHT22;67098;51.140;4.088;2023-10-31T02:03:54;13.60;99.90
32217;DHT22;67098;51.140;4.088;2023-10-31T02:06:20;13.50;99.90
32217;DHT22;67098;51.140;4.088;2023-10-31T02:08:47;13.40;99.90
32217;DHT22;67098;51.140;4.088;2023-10-31T02:11:13;13.50;99.90
32217;DHT22;67098;51.140;4.088;2023-10-31T02:13:39;13.40;99.90
32217;DHT22;67098;51.140;4.088;2023-10-31T02:16:05;13.40;99.90
32217;DHT22;67098;51.140;4.088;2023-10-31T02:18:32;13.30;99.90
32217;DHT22;67098;51.140;4.088;2023-10-31T02:20:58;13.40;99.90
32217;DHT22;67098;51.140;4.088;2023-10-31T02:23:24;13.40;99.90
32217;DHT22;67098;51.140;4.088;2023-10-31T02:25:50;13.50;99.90
32217;DHT22;67098;51.140;4.088;2023-10-31T02:28:15;13.50;99.90
32217;DHT22;67098;51.140;4.088;2023-10-31T02:30:41;13.60;99.80
32217;DHT22;67098;51.140;4.088;2023-10-31T02:33:07;13.60;99.70
32217;DHT22;67098;51.140;4.088;2023-10-31T02:35:33;13.60;99.60
32217;DHT22;67098;51.140;4.088;2023-10-31T02:37:58;13.60;99.60
32217;DHT22;67098;51.140;4.088;2023-10-31T02:40:24;13.60;99.50
32217;DHT22;67098;51.140;4.088;2023-10-31T02:42:50;13.60;99.40
32217;DHT22;67098;51.140;4.088;2023-10-31T02:45:16;13.60;99.30
32217;DHT22;67098;51.140;4.088;2023-10-31T02:47:41;13.60;99.50
32217;DHT22;67098;51.140;4.088;2023-10-31T02:50:07;13.50;99.80
32217;DHT22;67098;51.140;4.088;2023-10-31T02:52:33;13.50;99.70
32217;DHT22;67098;51.140;4.088;2023-10-31T02:54:59;13.50;99.70
32217;DHT22;67098;51.140;4.088;2023-10-31T02:57:25;13.50;99.60
32217;DHT22;67098;51.140;4.088;2023-10-31T02:59:50;13.60;99.50
32217;DHT22;67098;51.140;4.088;2023-10-31T03:02:16;13.60;99.20
32217;DHT22;67098;51.140;4.088;2023-10-31T03:04:42;13.50;99.10
32217;DHT22;67098;51.140;4.088;2023-10-31T03:07:08;13.50;99.20
32217;DHT22;67098;51.140;4.088;2023-10-31T03:09:34;13.40;99.30
32217;DHT22;67098;51.140;4.088;2023-10-31T03:11:59;13.30;99.20
32217;DHT22;67098;51.140;4.088;2023-10-31T03:14:25;13.30;99.40
32217;DHT22;67098;51.140;4.088;2023-10-31T03:16:51;13.20;99.30
32217;DHT22;67098;51.140;4.088;2023-10-31T03:19:17;13.20;99.30
32217;DHT22;67098;51.140;4.088;2023-10-31T03:21:42;13.30;99.40
32217;DHT22;67098;51.140;4.088;2023-10-31T03:24:08;13.20;99.30
32217;DHT22;67098;51.140;4.088;2023-10-31T03:26:34;13.10;99.40
32217;DHT22;67098;51.140;4.088;2023-10-31T03:29:00;13.00;99.40
32217;DHT22;67098;51.140;4.088;2023-10-31T03:31:26;13.00;99.40
32217;DHT22;67098;51.140;4.088;2023-10-31T03:33:51;13.00;99.30
32217;DHT22;67098;51.140;4.088;2023-10-31T03:36:18;13.00;99.30
32217;DHT22;67098;51.140;4.088;2023-10-31T03:38:44;13.00;99.30
32217;DHT22;67098;51.140;4.088;2023-10-31T03:41:10;13.00;99.20
32217;DHT22;67098;51.140;4.088;2023-10-31T03:43:36;13.00;99.30
32217;DHT22;67098;51.140;4.088;2023-10-31T03:46:02;13.00;99.20
32217;DHT22;67098;51.140;4.088;2023-10-31T03:48:27;12.90;99.50
32217;DHT22;67098;51.140;4.088;2023-10-31T03:50:53;13.00;99.30
32217;DHT22;67098;51.140;4.088;2023-10-31T03:53:19;13.00;99.30
32217;DHT22;67098;51.140;4.088;2023-10-31T03:55:45;12.90;99.40
32217;DHT22;67098;51.140;4.088;2023-10-31T03:58:11;12.90;99.60
32217;DHT22;67098;51.140;4.088;2023-10-31T04:00:36;12.90;99.50
32217;DHT22;67098;51.140;4.088;2023-10-31T04:03:04;12.90;99.30
32217;DHT22;67098;51.140;4.088;2023-10-31T04:05:29;12.90;99.30
32217;DHT22;67098;51.140;4.088;2023-10-31T04:07:55;12.80;99.50
32217;DHT22;67098;51.140;4.088;2023-10-31T04:10:21;12.90;99.20
32217;DHT22;67098;51.140;4.088;2023-10-31T04:12:47;13.00;99.00
32217;DHT22;67098;51.140;4.088;2023-10-31T04:15:13;13.00;99.00
32217;DHT22;67098;51.140;4.088;2023-10-31T04:17:39;13.00;99.20
32217;DHT22;67098;51.140;4.088;2023-10-31T04:20:06;12.90;99.30
32217;DHT22;67098;51.140;4.088;2023-10-31T04:22:32;13.00;99.20
32217;DHT22;67098;51.140;4.088;2023-10-31T04:24:57;13.10;99.20
32217;DHT22;67098;51.140;4.088;2023-10-31T04:27:23;13.10;99.00
32217;DHT22;67098;51.140;4.088;2023-10-31T04:29:49;13.20;99.00
32217;DHT22;67098;51.140;4.088;2023-10-31T04:32:14;13.10;99.10
32217;DHT22;67098;51.140;4.088;2023-10-31T04:34:40;13.10;98.90
32217;DHT22;67098;51.140;4.088;2023-10-31T04:37:06;13.10;98.90
32217;DHT22;67098;51.140;4.088;2023-10-31T04:39:32;13.10;99.00
32217;DHT22;67098;51.140;4.088;2023-10-31T04:41:58;13.10;99.10
32217;DHT22;67098;51.140;4.088;2023-10-31T04:44:23;13.10;99.00
32217;DHT22;67098;51.140;4.088;2023-10-31T04:46:49;13.10;99.00
32217;DHT22;67098;51.140;4.088;2023-10-31T04:49:15;13.10;98.80
32217;DHT22;67098;51.140;4.088;2023-10-31T04:51:41;13.10;98.80
32217;DHT22;67098;51.140;4.088;2023-10-31T04:54:07;13.10;99.00
32217;DHT22;67098;51.140;4.088;2023-10-31T04:56:33;13.10;98.80
32217;DHT22;67098;51.140;4.088;2023-10-31T04:58:59;13.10;98.90
32217;DHT22;67098;51.140;4.088;2023-10-31T05:01:25;13.10;99.10
32217;DHT22;67098;51.140;4.088;2023-10-31T05:03:51;13.20;98.90
32217;DHT22;67098;51.140;4.088;2023-10-31T05:06:22;13.20;98.80
32217;DHT22;67098;51.140;4.088;2023-10-31T05:08:48;13.20;98.80
32217;DHT22;67098;51.140;4.088;2023-10-31T05:11:17;13.20;98.70
32217;DHT22;67098;51.140;4.088;2023-10-31T05:13:44;13.20;98.50
32217;DHT22;67098;51.140;4.088;2023-10-31T05:16:10;13.10;98.40
32217;DHT22;67098;51.140;4.088;2023-10-31T05:18:38;13.10;98.50
32217;DHT22;67098;51.140;4.088;2023-10-31T05:21:04;13.00;98.50
32217;DHT22;67098;51.140;4.088;2023-10-31T05:23:30;13.00;98.60
32217;DHT22;67098;51.140;4.088;2023-10-31T05:25:56;12.90;98.60
32217;DHT22;67098;51.140;4.088;2023-10-31T05:28:22;12.90;98.70
32217;DHT22;67098;51.140;4.088;2023-10-31T05:30:49;13.00;98.70
32217;DHT22;67098;51.140;4.088;2023-10-31T05:33:15;13.00;98.70
32217;DHT22;67098;51.140;4.088;2023-10-31T05:35:42;13.00;98.50
32217;DHT22;67098;51.140;4.088;2023-10-31T05:38:08;12.90;98.50
32217;DHT22;67098;51.140;4.088;2023-10-31T05:40:34;12.80;98.50
32217;DHT22;67098;51.140;4.088;2023-10-31T05:43:01;12.80;98.70
32217;DHT22;67098;51.140;4.088;2023-10-31T05:45:28;12.80;98.50
32217;DHT22;67098;51.140;4.088;2023-10-31T05:47:54;12.80;98.40
32217;DHT22;67098;51.140;4.088;2023-10-31T05:50:20;12.70;98.60
32217;DHT22;67098;51.140;4.088;2023-10-31T05:52:46;12.60;98.80
32217;DHT22;67098;51.140;4.088;2023-10-31T05:55:13;12.60;98.80
32217;DHT22;67098;51.140;4.088;2023-10-31T05:57:39;12.50;99.00
32217;DHT22;67098;51.140;4.088;2023-10-31T06:00:06;12.50;99.00
32217;DHT22;67098;51.140;4.088;2023-10-31T06:02:32;12.60;99.10
32217;DHT22;67098;51.140;4.088;2023-10-31T06:04:58;12.50;99.10
32217;DHT22;67098;51.140;4.088;2023-10-31T06:07:23;12.40;99.50
32217;DHT22;67098;51.140;4.088;2023-10-31T06:09:49;12.30;99.80
32217;DHT22;67098;51.140;4.088;2023-10-31T06:12:15;12.40;99.80
32217;DHT22;67098;51.140;4.088;2023-10-31T06:14:41;12.30;99.90
32217;DHT22;67098;51.140;4.088;2023-10-31T06:17:07;12.30;99.90
32217;DHT22;67098;51.140;4.088;2023-10-31T06:19:38;12.40;99.90
32217;DHT22;67098;51.140;4.088;2023-10-31T06:22:11;12.40;99.90
32217;DHT22;67098;51.140;4.088;2023-10-31T06:24:36;12.50;99.70
32217;DHT22;67098;51.140;4.088;2023-10-31T06:27:02;12.60;99.80
32217;DHT22;67098;51.140;4.088;2023-10-31T06:29:28;12.50;99.90
32217;DHT22;67098;51.140;4.088;2023-10-31T06:31:54;12.60;99.80
32217;DHT22;67098;51.140;4.088;2023-10-31T06:34:20;12.60;99.90
32217;DHT22;67098;51.140;4.088;2023-10-31T06:36:45;12.60;99.90
32217;DHT22;67098;51.140;4.088;2023-10-31T06:39:11;12.60;99.80
32217;DHT22;67098;51.140;4.088;2023-10-31T06:41:37;12.70;99.70
32217;DHT22;67098;51.140;4.088;2023-10-31T06:44:03;12.70;99.60
32217;DHT22;67098;51.140;4.088;2023-10-31T06:46:29;12.80;99.50
32217;DHT22;67098;51.140;4.088;2023-10-31T06:48:54;12.70;99.60
32217;DHT22;67098;51.140;4.088;2023-10-31T06:51:20;12.80;99.50
32217;DHT22;67098;51.140;4.088;2023-10-31T06:53:46;12.80;99.40
32217;DHT22;67098;51.140;4.088;2023-10-31T06:56:12;12.80;99.40
32217;DHT22;67098;51.140;4.088;2023-10-31T06:58:37;12.80;99.40
32217;DHT22;67098;51.140;4.088;2023-10-31T07:01:03;12.90;99.50
32217;DHT22;67098;51.140;4.088;2023-10-31T07:03:29;12.90;99.50
32217;DHT22;67098;51.140;4.088;2023-10-31T07:05:55;12.90;99.60
32217;DHT22;67098;51.140;4.088;2023-10-31T07:08:22;12.80;99.60
32217;DHT22;67098;51.140;4.088;2023-10-31T07:10:48;12.70;99.80
32217;DHT22;67098;51.140;4.088;2023-10-31T07:13:13;12.90;99.70
32217;DHT22;67098;51.140;4.088;2023-10-31T07:15:39;12.90;99.80
32217;DHT22;67098;51.140;4.088;2023-10-31T07:18:06;12.90;99.80
32217;DHT22;67098;51.140;4.088;2023-10-31T07:20:33;12.90;99.80
32217;DHT22;67098;51.140;4.088;2023-10-31T07:22:59;13.10;99.70
32217;DHT22;67098;51.140;4.088;2023-10-31T07:25:24;13.10;99.80
32217;DHT22;67098;51.140;4.088;2023-10-31T07:27:50;13.20;99.70
32217;DHT22;67098;51.140;4.088;2023-10-31T07:30:16;13.10;99.60
32217;DHT22;67098;51.140;4.088;2023-10-31T07:32:42;13.10;99.90
32217;DHT22;67098;51.140;4.088;2023-10-31T07:35:08;13.20;99.70
32217;DHT22;67098;51.140;4.088;2023-10-31T07:37:33;13.20;99.70
32217;DHT22;67098;51.140;4.088;2023-10-31T07:39:59;13.20;99.90
32217;DHT22;67098;51.140;4.088;2023-10-31T07:42:25;13.20;99.90
32217;DHT22;67098;51.140;4.088;2023-10-31T07:44:51;13.30;99.90
32217;DHT22;67098;51.140;4.088;2023-10-31T07:47:16;13.20;99.80
32217;DHT22;67098;51.140;4.088;2023-10-31T07:49:42;13.30;99.60
32217;DHT22;67098;51.140;4.088;2023-10-31T07:52:08;13.50;99.20
32217;DHT22;67098;51.140;4.088;2023-10-31T07:54:34;13.30;99.50
32217;DHT22;67098;51.140;4.088;2023-10-31T07:57:00;13.40;99.70
32217;DHT22;67098;51.140;4.088;2023-10-31T07:59:25;13.20;99.90
32217;DHT22;67098;51.140;4.088;2023-10-31T08:01:51;13.10;99.90
32217;DHT22;67098;51.140;4.088;2023-10-31T08:04:17;13.20;99.90
32217;DHT22;67098;51.140;4.088;2023-10-31T08:06:43;13.20;99.60
32217;DHT22;67098;51.140;4.088;2023-10-31T08:09:09;13.20;99.50
32217;DHT22;67098;51.140;4.088;2023-10-31T08:11:35;13.20;99.70
32217;DHT22;67098;51.140;4.088;2023-10-31T08:14:01;13.20;99.90
32217;DHT22;67098;51.140;4.088;2023-10-31T08:16:27;13.20;99.90
32217;DHT22;67098;51.140;4.088;2023-10-31T08:18:53;13.20;99.80
32217;DHT22;67098;51.140;4.088;2023-10-31T08:21:19;13.30;99.60
32217;DHT22;67098;51.140;4.088;2023-10-31T08:23:45;13.50;99.50
32217;DHT22;67098;51.140;4.088;2023-10-31T08:26:12;13.60;99.30
32217;DHT22;67098;51.140;4.088;2023-10-31T08:28:38;13.70;99.30
32217;DHT22;67098;51.140;4.088;2023-10-31T08:31:04;13.80;99.10
32217;DHT22;67098;51.140;4.088;2023-10-31T08:33:30;13.80;99.20
32217;DHT22;67098;51.140;4.088;2023-10-31T08:35:56;13.90;98.90
32217;DHT22;67098;51.140;4.088;2023-10-31T08:38:21;14.00;98.50
32217;DHT22;67098;51.140;4.088;2023-10-31T08:40:47;14.00;98.80
32217;DHT22;67098;51.140;4.088;2023-10-31T08:43:14;14.10;98.60
32217;DHT22;67098;51.140;4.088;2023-10-31T08:45:40;14.10;98.80
32217;DHT22;67098;51.140;4.088;2023-10-31T08:48:05;14.20;98.40
32217;DHT22;67098;51.140;4.088;2023-10-31T08:50:31;14.20;98.70
32217;DHT22;67098;51.140;4.088;2023-10-31T08:52:57;14.20;98.40
32217;DHT22;67098;51.140;4.088;2023-10-31T08:55:23;14.30;98.40
32217;DHT22;67098;51.140;4.088;2023-10-31T08:57:48;14.40;98.10
32217;DHT22;67098;51.140;4.088;2023-10-31T09:00:14;14.40;98.00
32217;DHT22;67098;51.140;4.088;2023-10-31T09:02:40;14.50;98.00
32217;DHT22;67098;51.140;4.088;2023-10-31T09:05:06;14.70;97.70
32217;DHT22;67098;51.140;4.088;2023-10-31T09:07:32;14.80;97.50
32217;DHT22;67098;51.140;4.088;2023-10-31T09:09:58;15.00;97.20
32217;DHT22;67098;51.140;4.088;2023-10-31T09:12:24;15.10;97.10
32217;DHT22;67098;51.140;4.088;2023-10-31T09:14:49;15.20;97.00
32217;DHT22;67098;51.140;4.088;2023-10-31T09:17:15;15.30;96.80
32217;DHT22;67098;51.140;4.088;2023-10-31T09:19:41;15.30;96.90
32217;DHT22;67098;51.140;4.088;2023-10-31T09:22:06;15.30;96.70
32217;DHT22;67098;51.140;4.088;2023-10-31T09:24:33;15.30;96.40
32217;DHT22;67098;51.140;4.088;2023-10-31T09:26:59;15.30;96.50
32217;DHT22;67098;51.140;4.088;2023-10-31T09:29:25;15.40;96.70
32217;DHT22;67098;51.140;4.088;2023-10-31T09:31:50;15.50;96.30
32217;DHT22;67098;51.140;4.088;2023-10-31T09:34:16;15.60;96.30
32217;DHT22;67098;51.140;4.088;2023-10-31T09:36:42;15.80;96.10
32217;DHT22;67098;51.140;4.088;2023-10-31T09:39:08;16.00;95.80
32217;DHT22;67098;51.140;4.088;2023-10-31T09:41:33;16.20;95.40
32217;DHT22;67098;51.140;4.088;2023-10-31T09:44:00;16.10;95.10
32217;DHT22;67098;51.140;4.088;2023-10-31T09:46:26;16.10;95.10
32217;DHT22;67098;51.140;4.088;2023-10-31T09:48:53;16.10;95.30
32217;DHT22;67098;51.140;4.088;2023-10-31T09:51:20;16.00;95.50
32217;DHT22;67098;51.140;4.088;2023-10-31T09:53:47;16.00;95.30
32217;DHT22;67098;51.140;4.088;2023-10-31T09:56:14;16.10;94.90
32217;DHT22;67098;51.140;4.088;2023-10-31T09:58:40;16.00;94.80
32217;DHT22;67098;51.140;4.088;2023-10-31T10:01:07;15.80;95.20
32217;DHT22;67098;51.140;4.088;2023-10-31T10:03:34;15.80;95.40
32217;DHT22;67098;51.140;4.088;2023-10-31T10:06:01;15.90;95.40
32217;DHT22;67098;51.140;4.088;2023-10-31T10:08:27;15.90;95.20
32217;DHT22;67098;51.140;4.088;2023-10-31T10:10:54;16.00;95.30
32217;DHT22;67098;51.140;4.088;2023-10-31T10:13:23;15.90;95.30
32217;DHT22;67098;51.140;4.088;2023-10-31T10:15:50;15.90;95.30
32217;DHT22;67098;51.140;4.088;2023-10-31T10:18:31;16.00;94.70
32217;DHT22;67098;51.140;4.088;2023-10-31T10:20:59;15.90;94.70
32217;DHT22;67098;51.140;4.088;2023-10-31T10:23:26;15.90;94.80
32217;DHT22;67098;51.140;4.088;2023-10-31T10:25:52;16.00;95.10
32217;DHT22;67098;51.140;4.088;2023-10-31T10:28:18;16.00;95.20
32217;DHT22;67098;51.140;4.088;2023-10-31T10:30:50;16.00;94.90
32217;DHT22;67098;51.140;4.088;2023-10-31T10:33:16;16.10;94.50
32217;DHT22;67098;51.140;4.088;2023-10-31T10:35:43;16.10;94.50
32217;DHT22;67098;51.140;4.088;2023-10-31T10:38:14;16.00;94.80
32217;DHT22;67098;51.140;4.088;2023-10-31T10:40:44;15.90;94.90
32217;DHT22;67098;51.140;4.088;2023-10-31T10:43:23;16.10;94.90
32217;DHT22;67098;51.140;4.088;2023-10-31T10:45:57;16.10;95.00
32217;DHT22;67098;51.140;4.088;2023-10-31T10:48:25;15.90;95.20
32217;DHT22;67098;51.140;4.088;2023-10-31T10:51:13;15.90;95.10
32217;DHT22;67098;51.140;4.088;2023-10-31T10:53:48;16.00;95.10
32217;DHT22;67098;51.140;4.088;2023-10-31T10:56:24;16.00;95.10
32217;DHT22;67098;51.140;4.088;2023-10-31T10:58:59;16.00;94.90
32217;DHT22;67098;51.140;4.088;2023-10-31T11:01:26;16.10;94.60
32217;DHT22;67098;51.140;4.088;2023-10-31T11:03:55;16.10;94.10
32217;DHT22;67098;51.140;4.088;2023-10-31T11:06:21;16.00;94.50
32217;DHT22;67098;51.140;4.088;2023-10-31T11:08:47;16.00;94.50
32217;DHT22;67098;51.140;4.088;2023-10-31T11:11:13;16.00;94.50
32217;DHT22;67098;51.140;4.088;2023-10-31T11:13:43;16.20;94.30
32217;DHT22;67098;51.140;4.088;2023-10-31T11:16:16;16.30;94.20
32217;DHT22;67098;51.140;4.088;2023-10-31T11:18:43;16.30;94.20
32217;DHT22;67098;51.140;4.088;2023-10-31T11:21:09;16.20;94.10
32217;DHT22;67098;51.140;4.088;2023-10-31T11:23:36;16.10;94.40
32217;DHT22;67098;51.140;4.088;2023-10-31T11:26:02;16.10;94.50
32217;DHT22;67098;51.140;4.088;2023-10-31T11:28:27;16.10;94.50
32217;DHT22;67098;51.140;4.088;2023-10-31T11:30:53;16.10;94.20
32217;DHT22;67098;51.140;4.088;2023-10-31T11:33:24;16.10;94.00
32217;DHT22;67098;51.140;4.088;2023-10-31T11:35:51;16.20;94.00
32217;DHT22;67098;51.140;4.088;2023-10-31T11:38:34;16.00;94.00
32217;DHT22;67098;51.140;4.088;2023-10-31T11:41:01;15.80;94.40
32217;DHT22;67098;51.140;4.088;2023-10-31T11:46:05;15.40;94.90
32217;DHT22;67098;51.140;4.088;2023-10-31T11:48:54;15.20;95.20
32217;DHT22;67098;51.140;4.088;2023-10-31T11:51:25;15.20;95.20
32217;DHT22;67098;51.140;4.088;2023-10-31T11:53:51;15.10;95.40
32217;DHT22;67098;51.140;4.088;2023-10-31T11:56:18;15.10;95.60
32217;DHT22;67098;51.140;4.088;2023-10-31T11:58:44;15.10;95.80
32217;DHT22;67098;51.140;4.088;2023-10-31T12:01:10;15.00;96.10
32217;DHT22;67098;51.140;4.088;2023-10-31T12:03:41;14.50;96.80
32217;DHT22;67098;51.140;4.088;2023-10-31T12:06:08;14.60;96.80
32217;DHT22;67098;51.140;4.088;2023-10-31T12:08:36;14.70;96.90
32217;DHT22;67098;51.140;4.088;2023-10-31T12:11:13;14.80;96.90
32217;DHT22;67098;51.140;4.088;2023-10-31T12:13:52;15.00;96.80
32217;DHT22;67098;51.140;4.088;2023-10-31T12:16:18;15.20;96.70
32217;DHT22;67098;51.140;4.088;2023-10-31T12:18:44;15.20;96.60
32217;DHT22;67098;51.140;4.088;2023-10-31T12:21:09;15.30;96.70
32217;DHT22;67098;51.140;4.088;2023-10-31T12:23:39;15.40;96.60
32217;DHT22;67098;51.140;4.088;2023-10-31T12:26:05;15.40;96.60
32217;DHT22;67098;51.140;4.088;2023-10-31T12:28:31;15.40;96.70
32217;DHT22;67098;51.140;4.088;2023-10-31T12:30:57;15.50;96.60
32217;DHT22;67098;51.140;4.088;2023-10-31T12:33:26;15.60;97.00
32217;DHT22;67098;51.140;4.088;2023-10-31T12:35:56;15.70;96.70
32217;DHT22;67098;51.140;4.088;2023-10-31T12:38:23;15.80;96.50
32217;DHT22;67098;51.140;4.088;2023-10-31T12:40:49;15.90;96.60
32217;DHT22;67098;51.140;4.088;2023-10-31T12:43:17;16.00;96.50
32217;DHT22;67098;51.140;4.088;2023-10-31T12:45:43;16.10;96.40
32217;DHT22;67098;51.140;4.088;2023-10-31T12:48:10;16.20;96.30
32217;DHT22;67098;51.140;4.088;2023-10-31T12:50:37;16.30;96.00
32217;DHT22;67098;51.140;4.088;2023-10-31T12:53:03;16.40;96.00
32217;DHT22;67098;51.140;4.088;2023-10-31T12:55:31;16.40;95.90
32217;DHT22;67098;51.140;4.088;2023-10-31T12:58:02;16.40;95.60
32217;DHT22;67098;51.140;4.088;2023-10-31T13:00:33;16.40;95.50
32217;DHT22;67098;51.140;4.088;2023-10-31T13:03:03;16.40;95.60
32217;DHT22;67098;51.140;4.088;2023-10-31T13:05:29;16.30;95.70
32217;DHT22;67098;51.140;4.088;2023-10-31T13:07:55;16.30;95.60
32217;DHT22;67098;51.140;4.088;2023-10-31T13:10:24;16.30;95.70
32217;DHT22;67098;51.140;4.088;2023-10-31T13:12:50;16.20;95.60
32217;DHT22;67098;51.140;4.088;2023-10-31T13:15:17;16.20;95.70
32217;DHT22;67098;51.140;4.088;2023-10-31T13:17:46;16.20;95.80
32217;DHT22;67098;51.140;4.088;2023-10-31T13:20:14;16.30;95.80
32217;DHT22;67098;51.140;4.088;2023-10-31T13:22:41;16.30;95.70
32217;DHT22;67098;51.140;4.088;2023-10-31T13:25:08;16.40;95.80
32217;DHT22;67098;51.140;4.088;2023-10-31T13:27:36;16.20;95.70
32217;DHT22;67098;51.140;4.088;2023-10-31T13:30:03;16.10;96.00
32217;DHT22;67098;51.140;4.088;2023-10-31T13:32:29;16.00;96.10
32217;DHT22;67098;51.140;4.088;2023-10-31T13:34:54;16.00;96.30
32217;DHT22;67098;51.140;4.088;2023-10-31T13:37:20;16.10;96.40
32217;DHT22;67098;51.140;4.088;2023-10-31T13:39:46;16.20;96.40
32217;DHT22;67098;51.140;4.088;2023-10-31T13:42:12;16.40;96.20
32217;DHT22;67098;51.140;4.088;2023-10-31T13:44:40;16.70;96.10
32217;DHT22;67098;51.140;4.088;2023-10-31T13:47:06;16.90;95.60
32217;DHT22;67098;51.140;4.088;2023-10-31T13:49:32;17.10;95.20
32217;DHT22;67098;51.140;4.088;2023-10-31T13:51:58;17.10;95.20
32217;DHT22;67098;51.140;4.088;2023-10-31T13:54:23;17.20;95.00
32217;DHT22;67098;51.140;4.088;2023-10-31T13:56:49;17.30;95.10
32217;DHT22;67098;51.140;4.088;2023-10-31T13:59:15;17.50;94.80
32217;DHT22;67098;51.140;4.088;2023-10-31T14:01:41;17.80;94.70
32217;DHT22;67098;51.140;4.088;2023-10-31T14:04:08;17.90;94.50
32217;DHT22;67098;51.140;4.088;2023-10-31T14:06:34;18.20;94.10
32217;DHT22;67098;51.140;4.088;2023-10-31T14:09:00;18.30;93.30
32217;DHT22;67098;51.140;4.088;2023-10-31T14:11:30;18.30;93.40
32217;DHT22;67098;51.140;4.088;2023-10-31T14:13:56;18.50;93.20
32217;DHT22;67098;51.140;4.088;2023-10-31T14:16:32;18.30;92.70
32217;DHT22;67098;51.140;4.088;2023-10-31T14:18:57;18.10;93.00
32217;DHT22;67098;51.140;4.088;2023-10-31T14:21:23;17.80;93.30
32217;DHT22;67098;51.140;4.088;2023-10-31T14:23:51;17.40;93.50
32217;DHT22;67098;51.140;4.088;2023-10-31T14:26:22;17.30;93.80
32217;DHT22;67098;51.140;4.088;2023-10-31T14:28:49;17.20;94.00
32217;DHT22;67098;51.140;4.088;2023-10-31T14:31:15;17.20;94.10
32217;DHT22;67098;51.140;4.088;2023-10-31T14:33:42;17.20;94.10
32217;DHT22;67098;51.140;4.088;2023-10-31T14:36:09;17.30;94.20
32217;DHT22;67098;51.140;4.088;2023-10-31T14:38:37;17.50;94.20
32217;DHT22;67098;51.140;4.088;2023-10-31T14:41:03;17.50;94.20
32217;DHT22;67098;51.140;4.088;2023-10-31T14:43:29;17.50;94.00
32217;DHT22;67098;51.140;4.088;2023-10-31T14:45:56;17.50;94.00
32217;DHT22;67098;51.140;4.088;2023-10-31T14:48:22;17.40;94.10
32217;DHT22;67098;51.140;4.088;2023-10-31T14:50:48;17.50;93.90
32217;DHT22;67098;51.140;4.088;2023-10-31T14:53:17;17.50;93.90
32217;DHT22;67098;51.140;4.088;2023-10-31T14:55:45;17.50;93.80
32217;DHT22;67098;51.140;4.088;2023-10-31T14:58:11;17.40;94.00
32217;DHT22;67098;51.140;4.088;2023-10-31T15:00:37;17.30;94.30
32217;DHT22;67098;51.140;4.088;2023-10-31T15:03:03;17.20;94.40
32217;DHT22;67098;51.140;4.088;2023-10-31T15:05:29;17.10;94.50
32217;DHT22;67098;51.140;4.088;2023-10-31T15:07:56;17.00;94.50
32217;DHT22;67098;51.140;4.088;2023-10-31T15:10:23;16.80;94.70
32217;DHT22;67098;51.140;4.088;2023-10-31T15:12:50;16.80;94.70
32217;DHT22;67098;51.140;4.088;2023-10-31T15:15:16;16.70;95.00
32217;DHT22;67098;51.140;4.088;2023-10-31T15:17:41;16.80;95.00
32217;DHT22;67098;51.140;4.088;2023-10-31T15:20:08;16.60;95.20
32217;DHT22;67098;51.140;4.088;2023-10-31T15:22:41;16.60;95.20
32217;DHT22;67098;51.140;4.088;2023-10-31T15:25:10;16.60;95.00
32217;DHT22;67098;51.140;4.088;2023-10-31T15:27:37;16.60;95.20
32217;DHT22;67098;51.140;4.088;2023-10-31T15:30:05;16.50;95.20